Time;durP1;ratioP1;P1;durP2;ratioP2;P2;SDS_P1;SDS_P2;PMS_P1;PMS_P2;Temp;Humidity;BMP_temperature;BMP_pressure;BME280_temperature;BME280_humidity;BME280_pressure;Samples;Min_cycle;Max_cycle;Signal;HPM_P1;HPM_P2
2023/11/16 00:01:37;;;;;;;;;;;;;;;;;;5067094;28;19921;-61
2023/11/16 00:04:03;;;;;;;;;;;;;;;;;;5069843;28;20447;-61
2023/11/16 00:06:29;;;;;;;;;;;;;;;;;;5070646;28;20013;-62
2023/11/16 00:08:55;;;;;;;;;;;;;;;;;;5068401;28;19976;-61
2023/11/16 00:11:21;;;;;;;;;;;;;;;;;;5065020;28;19932;-61
2023/11/16 00:13:47;;;;;;;;;;;;;;;;;;5068613;28;19925;-61
2023/11/16 00:16:16;;;;;;;;;;;;;;;;;;5059030;28;20008;-62
2023/11/16 00:18:42;;;;;;;;;;;;;;;;;;5068078;28;19980;-61
2023/11/16 00:21:08;;;;;;;;;;;;;;;;;;5069356;28;19933;-61
2023/11/16 00:23:34;;;;;;;;;;;;;;;;;;5068154;28;19970;-61
2023/11/16 00:26:00;;;;;;;;;;;;;;;;;;5065653;28;19924;-61
2023/11/16 00:28:26;;;;;;;;;;;;;;;;;;5068578;28;21287;-61
2023/11/16 00:30:52;;;;;;;;;;;;;;;;;;5068281;28;19931;-61
2023/11/16 00:33:18;;;;;;;;;;;;;;;;;;5066202;28;19928;-61
2023/11/16 00:35:45;;;;;;;;;;;;;;;;;;5068494;28;20428;-62
2023/11/16 00:38:13;;;;;;;;;;;;;;;;;;5069064;28;19925;-62
2023/11/16 00:40:39;;;;;;;;;;;;;;;;;;5067030;28;19950;-61
2023/11/16 00:43:05;;;;;;;;;;;;;;;;;;5068419;28;20381;-61
2023/11/16 00:45:31;;;;;;;;;;;;;;;;;;5069739;28;19920;-61
2023/11/16 00:47:57;;;;;;;;;;;;;;;;;;5062984;28;19935;-61
2023/11/16 00:50:23;;;;;;;;;;;;;;;;;;5068619;28;20405;-61
2023/11/16 00:52:49;;;;;;;;;;;;;;;;;;5069214;28;19928;-62
2023/11/16 00:55:18;;;;;;;;;;;;;;;;;;5070832;28;19928;-61
2023/11/16 00:57:47;;;;;;;;;;;;;;;;;;5068863;28;19924;-61
2023/11/16 01:00:13;;;;;;;;;;;;;;;;;;5069100;28;19936;-61
2023/11/16 01:02:39;;;;;;;;;;;;;;;;;;5066567;28;19920;-61
2023/11/16 01:05:06;;;;;;;;;;;;;;;;;;5069645;28;19924;-61
2023/11/16 01:07:32;;;;;;;;;;;;;;;;;;5071684;28;19925;-62
2023/11/16 01:10:03;;;;;;;;;;;;;;;;;;5066972;28;19971;-61
2023/11/16 01:12:29;;;;;;;;;;;;;;;;;;5066167;28;19920;-61
2023/11/16 01:14:59;;;;;;;;;;;;;;;;;;5070460;28;19973;-62
2023/11/16 01:17:31;;;;;;;;;;;;;;;;;;5072511;28;19921;-61
2023/11/16 01:19:59;;;;;;;;;;;;;;;;;;5069456;28;19924;-61
2023/11/16 01:22:26;;;;;;;;;;;;;;;;;;5071389;28;19935;-61
2023/11/16 01:24:52;;;;;;;;;;;;;;;;;;5072071;28;20397;-62
2023/11/16 01:27:25;;;;;;;;;;;;;;;;;;5070103;28;19936;-61
2023/11/16 01:29:51;;;;;;;;;;;;;;;;;;5069463;28;20316;-61
2023/11/16 01:32:17;;;;;;;;;;;;;;;;;;5071517;28;19921;-61
2023/11/16 01:34:45;;;;;;;;;;;;;;;;;;5069127;28;19929;-61
2023/11/16 01:37:11;;;;;;;;;;;;;;;;;;5055445;28;19994;-61
2023/11/16 01:39:38;;;;;;;;;;;;;;;;;;5073036;28;19938;-62
2023/11/16 01:42:05;;;;;;;;;;;;;;;;;;5069575;28;19930;-62
2023/11/16 01:44:31;;;;;;;;;;;;;;;;;;5070855;28;19959;-61
2023/11/16 01:46:57;;;;;;;;;;;;;;;;;;5071442;28;21866;-62
2023/11/16 01:49:22;;;;;;;;;;;;;;;;;;5069853;28;20061;-61
2023/11/16 01:51:53;;;;;;;;;;;;;;;;;;5071119;28;19928;-62
2023/11/16 01:54:20;;;;;;;;;;;;;;;;;;5070104;28;19925;-62
2023/11/16 01:56:47;;;;;;;;;;;;;;;;;;5069762;28;20289;-62
2023/11/16 01:59:13;;;;;;;;;;;;;;;;;;5072653;28;19925;-62
2023/11/16 02:01:39;;;;;;;;;;;;;;;;;;5074142;28;19924;-62
2023/11/16 02:04:05;;;;;;;;;;;;;;;;;;5079929;28;19947;-62
2023/11/16 02:06:30;;;;;;;;;;;;;;;;;;5076006;28;20013;-62
2023/11/16 02:08:56;;;;;;;;;;;;;;;;;;5078834;28;19925;-62
2023/11/16 02:11:22;;;;;;;;;;;;;;;;;;5068929;28;19928;-62
2023/11/16 02:13:48;;;;;;;;;;;;;;;;;;5070916;28;20377;-62
2023/11/16 02:16:14;;;;;;;;;;;;;;;;;;5072228;28;19974;-62
2023/11/16 02:18:40;;;;;;;;;;;;;;;;;;5064043;28;19998;-62
2023/11/16 02:21:06;;;;;;;;;;;;;;;;;;5067351;28;19928;-62
2023/11/16 02:23:32;;;;;;;;;;;;;;;;;;5066181;28;19920;-62
2023/11/16 02:25:58;;;;;;;;;;;;;;;;;;5063823;28;20384;-62
2023/11/16 02:28:24;;;;;;;;;;;;;;;;;;5063804;28;19924;-62
2023/11/16 02:30:50;;;;;;;;;;;;;;;;;;5067023;28;19921;-62
2023/11/16 02:33:16;;;;;;;;;;;;;;;;;;5074898;28;20354;-62
2023/11/16 02:35:42;;;;;;;;;;;;;;;;;;5068632;28;19920;-62
2023/11/16 02:38:08;;;;;;;;;;;;;;;;;;5073028;28;19978;-62
2023/11/16 02:40:34;;;;;;;;;;;;;;;;;;5085117;28;19927;-62
2023/11/16 02:43:03;;;;;;;;;;;;;;;;;;5076866;28;19982;-62
2023/11/16 02:45:28;;;;;;;;;;;;;;;;;;5068548;28;20378;-62
2023/11/16 02:47:54;;;;;;;;;;;;;;;;;;5067123;28;19929;-62
2023/11/16 02:50:22;;;;;;;;;;;;;;;;;;5071878;28;19928;-62
2023/11/16 02:52:47;;;;;;;;;;;;;;;;;;5071227;28;19932;-62
2023/11/16 02:55:14;;;;;;;;;;;;;;;;;;5069354;28;20321;-62
2023/11/16 02:57:40;;;;;;;;;;;;;;;;;;5071699;28;20046;-62
2023/11/16 03:00:06;;;;;;;;;;;;;;;;;;5068513;28;20983;-62
2023/11/16 03:02:32;;;;;;;;;;;;;;;;;;5070685;28;19963;-61
2023/11/16 03:04:58;;;;;;;;;;;;;;;;;;5070440;28;19958;-61
2023/11/16 03:07:24;;;;;;;;;;;;;;;;;;5071530;28;19951;-61
2023/11/16 03:09:50;;;;;;;;;;;;;;;;;;5071335;28;19928;-61
2023/11/16 03:12:18;;;;;;;;;;;;;;;;;;5071421;28;19920;-62
2023/11/16 03:14:44;;;;;;;;;;;;;;;;;;5068998;28;19924;-61
2023/11/16 03:17:10;;;;;;;;;;;;;;;;;;5065590;28;19920;-61
2023/11/16 03:19:35;;;;;;;;;;;;;;;;;;5059901;28;19947;-61
2023/11/16 03:22:02;;;;;;;;;;;;;;;;;;5068768;28;20377;-61
2023/11/16 03:24:28;;;;;;;;;;;;;;;;;;5064794;28;19943;-62
2023/11/16 03:26:55;;;;;;;;;;;;;;;;;;5070439;28;20207;-61
2023/11/16 03:29:21;;;;;;;;;;;;;;;;;;5070906;28;19927;-61
2023/11/16 03:31:47;;;;;;;;;;;;;;;;;;5075424;28;20310;-61
2023/11/16 03:34:13;;;;;;;;;;;;;;;;;;5060394;28;20015;-61
2023/11/16 03:36:39;;;;;;;;;;;;;;;;;;5066728;28;20015;-61
2023/11/16 03:39:05;;;;;;;;;;;;;;;;;;5065682;28;19928;-62
2023/11/16 03:41:32;;;;;;;;;;;;;;;;;;5068630;28;19927;-61
2023/11/16 03:43:58;;;;;;;;;;;;;;;;;;5066699;28;19924;-61
2023/11/16 03:46:24;;;;;;;;;;;;;;;;;;5069032;28;20339;-61
2023/11/16 03:48:49;;;;;;;;;;;;;;;;;;5069065;28;19974;-61
2023/11/16 03:51:16;;;;;;;;;;;;;;;;;;5069098;28;19924;-61
2023/11/16 03:53:43;;;;;;;;;;;;;;;;;;5067942;28;19959;-61
2023/11/16 03:56:09;;;;;;;;;;;;;;;;;;5065189;28;19930;-61
2023/11/16 03:58:34;;;;;;;;;;;;;;;;;;5068130;28;19977;-62
2023/11/16 04:01:00;;;;;;;;;;;;;;;;;;5069217;28;20066;-61
2023/11/16 04:03:26;;;;;;;;;;;;;;;;;;5066827;28;20391;-61
2023/11/16 04:05:52;;;;;;;;;;;;;;;;;;5069035;28;20019;-61
2023/11/16 04:08:18;;;;;;;;;;;;;;;;;;5068265;28;19928;-62
2023/11/16 04:10:45;;;;;;;;;;;;;;;;;;5064307;28;19924;-62
2023/11/16 04:13:11;;;;;;;;;;;;;;;;;;5069928;28;19938;-62
2023/11/16 04:15:38;;;;;;;;;;;;;;;;;;5065534;28;20366;-61
2023/11/16 04:18:05;;;;;;;;;;;;;;;;;;5070429;28;19924;-62
2023/11/16 04:20:31;;;;;;;;;;;;;;;;;;5070968;28;20013;-62
2023/11/16 04:22:57;;;;;;;;;;;;;;;;;;5070702;28;20022;-62
2023/11/16 04:25:27;;;;;;;;;;;;;;;;;;5062947;28;20320;-61
2023/11/16 04:27:54;;;;;;;;;;;;;;;;;;5067760;28;20029;-61
2023/11/16 04:30:20;;;;;;;;;;;;;;;;;;5067801;28;19935;-61
2023/11/16 04:32:46;;;;;;;;;;;;;;;;;;5069714;28;19924;-61
2023/11/16 04:35:15;;;;;;;;;;;;;;;;;;5069577;28;19924;-61
2023/11/16 04:37:41;;;;;;;;;;;;;;;;;;5069060;28;19928;-62
2023/11/16 04:40:08;;;;;;;;;;;;;;;;;;5067807;28;20427;-62
2023/11/16 04:42:34;;;;;;;;;;;;;;;;;;5071174;28;20011;-62
2023/11/16 04:45:03;;;;;;;;;;;;;;;;;;5068403;28;20417;-62
2023/11/16 04:47:30;;;;;;;;;;;;;;;;;;5073098;28;19970;-62
2023/11/16 04:49:56;;;;;;;;;;;;;;;;;;5073461;28;20565;-62
2023/11/16 04:52:23;;;;;;;;;;;;;;;;;;5071823;28;19947;-61
2023/11/16 04:54:49;;;;;;;;;;;;;;;;;;5072608;28;20374;-61
2023/11/16 04:57:15;;;;;;;;;;;;;;;;;;5064275;28;19947;-61
2023/11/16 04:59:41;;;;;;;;;;;;;;;;;;5072577;28;19931;-61
2023/11/16 05:02:07;;;;;;;;;;;;;;;;;;5068540;28;19920;-61
2023/11/16 05:04:33;;;;;;;;;;;;;;;;;;5073263;28;19928;-61
2023/11/16 05:06:59;;;;;;;;;;;;;;;;;;5073922;28;20411;-61
2023/11/16 05:09:26;;;;;;;;;;;;;;;;;;5074116;28;22307;-61
2023/11/16 05:11:54;;;;;;;;;;;;;;;;;;5068226;28;19956;-61
2023/11/16 05:14:20;;;;;;;;;;;;;;;;;;5074367;28;19970;-61
2023/11/16 05:16:46;;;;;;;;;;;;;;;;;;5076421;28;19924;-62
2023/11/16 05:19:12;;;;;;;;;;;;;;;;;;5068827;28;20366;-62
2023/11/16 05:21:39;;;;;;;;;;;;;;;;;;5069740;28;19925;-62
2023/11/16 05:24:05;;;;;;;;;;;;;;;;;;5068640;28;19956;-62
2023/11/16 05:26:31;;;;;;;;;;;;;;;;;;5072311;28;19971;-62
2023/11/16 05:28:57;;;;;;;;;;;;;;;;;;5080247;28;20376;-62
2023/11/16 05:31:23;;;;;;;;;;;;;;;;;;5081554;28;19924;-62
2023/11/16 05:33:49;;;;;;;;;;;;;;;;;;5073832;28;19951;-62
2023/11/16 05:36:14;;;;;;;;;;;;;;;;;;5063639;28;19925;-62
2023/11/16 05:38:40;;;;;;;;;;;;;;;;;;5080457;28;19928;-62
2023/11/16 05:41:06;;;;;;;;;;;;;;;;;;5047932;28;19969;-62
2023/11/16 05:43:33;;;;;;;;;;;;;;;;;;5073307;28;20014;-62
2023/11/16 05:45:59;;;;;;;;;;;;;;;;;;5073270;28;19928;-62
2023/11/16 05:48:25;;;;;;;;;;;;;;;;;;5072117;28;19943;-62
2023/11/16 05:50:51;;;;;;;;;;;;;;;;;;5072634;28;19921;-61
2023/11/16 05:53:18;;;;;;;;;;;;;;;;;;5071947;28;20228;-61
2023/11/16 05:55:44;;;;;;;;;;;;;;;;;;5067367;28;19954;-62
2023/11/16 05:58:10;;;;;;;;;;;;;;;;;;5070211;28;19958;-61
2023/11/16 06:00:36;;;;;;;;;;;;;;;;;;5071739;28;19925;-61
2023/11/16 06:03:02;;;;;;;;;;;;;;;;;;5072290;28;20336;-61
2023/11/16 06:05:28;;;;;;;;;;;;;;;;;;5073651;28;19951;-61
2023/11/16 06:07:54;;;;;;;;;;;;;;;;;;5072943;28;20414;-61
2023/11/16 06:10:21;;;;;;;;;;;;;;;;;;5069672;28;19924;-61
2023/11/16 06:12:47;;;;;;;;;;;;;;;;;;5067895;28;19928;-61
2023/11/16 06:15:14;;;;;;;;;;;;;;;;;;5071602;28;19925;-61
2023/11/16 06:17:41;;;;;;;;;;;;;;;;;;5067717;28;19925;-61
2023/11/16 06:20:09;;;;;;;;;;;;;;;;;;5070714;28;19966;-61
2023/11/16 06:22:35;;;;;;;;;;;;;;;;;;5072678;28;20378;-61
2023/11/16 06:25:04;;;;;;;;;;;;;;;;;;5064893;28;19966;-61
2023/11/16 06:27:30;;;;;;;;;;;;;;;;;;5070328;28;19970;-61
2023/11/16 06:29:56;;;;;;;;;;;;;;;;;;5070969;28;19959;-61
2023/11/16 06:32:22;;;;;;;;;;;;;;;;;;5072404;28;19922;-61
2023/11/16 06:34:48;;;;;;;;;;;;;;;;;;5070391;28;19930;-61
2023/11/16 06:37:14;;;;;;;;;;;;;;;;;;5071372;28;20007;-61
2023/11/16 06:39:40;;;;;;;;;;;;;;;;;;5072112;28;20058;-61
2023/11/16 06:42:06;;;;;;;;;;;;;;;;;;5067173;28;19946;-61
2023/11/16 06:44:33;;;;;;;;;;;;;;;;;;5071439;28;19929;-61
2023/11/16 06:46:59;;;;;;;;;;;;;;;;;;5071315;28;20274;-61
2023/11/16 06:49:28;;;;;;;;;;;;;;;;;;5071859;28;19920;-62
2023/11/16 06:51:54;;;;;;;;;;;;;;;;;;5070835;28;19924;-62
2023/11/16 06:54:21;;;;;;;;;;;;;;;;;;5070391;28;20598;-62
2023/11/16 06:56:49;;;;;;;;;;;;;;;;;;5067248;28;20023;-62
2023/11/16 06:59:19;;;;;;;;;;;;;;;;;;5070386;28;19925;-62
2023/11/16 07:01:47;;;;;;;;;;;;;;;;;;5068220;28;19986;-62
2023/11/16 07:04:13;;;;;;;;;;;;;;;;;;5066985;28;19974;-62
2023/11/16 07:06:40;;;;;;;;;;;;;;;;;;5071129;28;20019;-62
2023/11/16 07:09:06;;;;;;;;;;;;;;;;;;5069129;28;19964;-62
2023/11/16 07:11:32;;;;;;;;;;;;;;;;;;5069315;28;19963;-62
2023/11/16 07:13:58;;;;;;;;;;;;;;;;;;5072148;28;19926;-62
2023/11/16 07:16:23;;;;;;;;;;;;;;;;;;5068432;28;19924;-61
2023/11/16 07:18:49;;;;;;;;;;;;;;;;;;5068212;28;19931;-61
2023/11/16 07:21:15;;;;;;;;;;;;;;;;;;5070382;28;19921;-61
2023/11/16 07:23:42;;;;;;;;;;;;;;;;;;5069786;28;20445;-61
2023/11/16 07:26:09;;;;;;;;;;;;;;;;;;5068310;28;20362;-61
2023/11/16 07:28:34;;;;;;;;;;;;;;;;;;5067068;28;20437;-62
2023/11/16 07:31:01;;;;;;;;;;;;;;;;;;5070746;28;20026;-62
2023/11/16 07:33:27;;;;;;;;;;;;;;;;;;5071709;28;19971;-62
2023/11/16 07:35:53;;;;;;;;;;;;;;;;;;5071896;28;19967;-62
2023/11/16 07:38:20;;;;;;;;;;;;;;;;;;5065823;28;19934;-62
2023/11/16 07:40:45;;;;;;;;;;;;;;;;;;5068354;28;19986;-62
2023/11/16 07:43:11;;;;;;;;;;;;;;;;;;5064516;28;20365;-62
2023/11/16 07:45:37;;;;;;;;;;;;;;;;;;5069224;28;19978;-62
2023/11/16 07:48:04;;;;;;;;;;;;;;;;;;5071178;28;20011;-62
2023/11/16 07:50:31;;;;;;;;;;;;;;;;;;5071087;28;20034;-64
2023/11/16 07:52:59;;;;;;;;;;;;;;;;;;5068673;28;20553;-62
2023/11/16 07:55:25;;;;;;;;;;;;;;;;;;5068495;28;19955;-62
2023/11/16 07:57:52;;;;;;;;;;;;;;;;;;5062229;28;19999;-63
2023/11/16 08:00:26;;;;;;;;;;;;;;;;;;5068484;28;19924;-63
2023/11/16 08:05:37;;;;;;;;;;;;;;;;;;5065263;28;19940;-62
2023/11/16 08:08:03;;;;;;;;;;;;;;;;;;5065226;28;20033;-62
2023/11/16 08:10:29;;;;;;;;;;;;;;;;;;5068552;28;19986;-62
2023/11/16 08:12:56;;;;;;;;;;;;;;;;;;5066895;28;19928;-62
2023/11/16 08:15:24;;;;;;;;;;;;;;;;;;5065297;28;19971;-62
2023/11/16 08:17:52;;;;;;;;;;;;;;;;;;5070948;28;20281;-62
2023/11/16 08:20:22;;;;;;;;;;;;;;;;;;5070309;28;20413;-62
2023/11/16 08:22:50;;;;;;;;;;;;;;;;;;5075058;28;19935;-62
2023/11/16 08:25:16;;;;;;;;;;;;;;;;;;5083365;22;20520;-63
2023/11/16 08:27:42;;;;;;;;;;;;;;;;;;5083817;28;20444;-63
2023/11/16 08:30:08;;;;;;;;;;;;;;;;;;5083944;28;19931;-63
2023/11/16 08:32:34;;;;;;;;;;;;;;;;;;5087105;28;19996;-63
2023/11/16 08:35:00;;;;;;;;;;;;;;;;;;5088735;28;19928;-63
2023/11/16 08:37:26;;;;;;;;;;;;;;;;;;5093033;28;19928;-63
2023/11/16 08:39:52;;;;;;;;;;;;;;;;;;5090227;28;19924;-64
2023/11/16 08:42:23;;;;;;;;;;;;;;;;;;5106733;27;20428;-63
2023/11/16 08:44:49;;;;;;;;;;;;;;;;;;5091957;28;19920;-63
2023/11/16 08:47:17;;;;;;;;;;;;;;;;;;5084226;28;20600;-63
2023/11/16 08:49:43;;;;;;;;;;;;;;;;;;5087907;28;20342;-63
2023/11/16 08:52:10;;;;;;;;;;;;;;;;;;5093714;28;19956;-63
2023/11/16 08:54:36;;;;;;;;;;;;;;;;;;5087544;28;19920;-64
2023/11/16 08:57:02;;;;;;;;;;;;;;;;;;5089517;28;19966;-65
2023/11/16 08:59:28;;;;;;;;;;;;;;;;;;5092321;28;19924;-64
2023/11/16 09:01:59;;;;;;;;;;;;;;;;;;5087670;28;19927;-65
2023/11/16 09:04:25;;;;;;;;;;;;;;;;;;5092889;28;20270;-64
2023/11/16 09:06:51;;;;;;;;;;;;;;;;;;5089439;28;20022;-63
2023/11/16 09:12:12;;;;;;;;;;;;;;;;;;5090790;28;19924;-64
2023/11/16 09:14:40;;;;;;;;;;;;;;;;;;5092341;28;19924;-64
2023/11/16 09:17:16;;;;;;;;;;;;;;;;;;5090483;28;20262;-63
2023/11/16 09:19:42;;;;;;;;;;;;;;;;;;5089659;28;19952;-63
2023/11/16 09:22:09;;;;;;;;;;;;;;;;;;5089628;28;20405;-64
2023/11/16 09:24:38;;;;;;;;;;;;;;;;;;5088593;28;19920;-63
2023/11/16 09:27:06;;;;;;;;;;;;;;;;;;5091687;28;19935;-63
2023/11/16 09:29:38;;;;;;;;;;;;;;;;;;5088311;28;20159;-63
2023/11/16 09:32:05;;;;;;;;;;;;;;;;;;5092214;28;19924;-63
2023/11/16 09:34:31;;;;;;;;;;;;;;;;;;5091484;28;19920;-63
2023/11/16 09:37:00;;;;;;;;;;;;;;;;;;5092083;28;19938;-63
2023/11/16 09:39:25;;;;;;;;;;;;;;;;;;5091971;28;20015;-63
2023/11/16 09:41:52;;;;;;;;;;;;;;;;;;5091694;28;20016;-64
2023/11/16 09:44:19;;;;;;;;;;;;;;;;;;5090377;28;19924;-63
2023/11/16 09:46:46;;;;;;;;;;;;;;;;;;5088712;28;19932;-64
2023/11/16 09:49:13;;;;;;;;;;;;;;;;;;5093827;28;19950;-63
2023/11/16 09:51:39;;;;;;;;;;;;;;;;;;5085415;28;19920;-64
2023/11/16 09:54:08;;;;;;;;;;;;;;;;;;5089970;28;19927;-63
2023/11/16 09:56:36;;;;;;;;;;;;;;;;;;5087800;28;19924;-64
2023/11/16 09:59:06;;;;;;;;;;;;;;;;;;5093994;28;19924;-63
2023/11/16 10:01:32;;;;;;;;;;;;;;;;;;5093341;28;19927;-63
2023/11/16 10:03:59;;;;;;;;;;;;;;;;;;5092524;28;20045;-63
2023/11/16 10:06:28;;;;;;;;;;;;;;;;;;5089607;28;19927;-64
2023/11/16 10:08:54;;;;;;;;;;;;;;;;;;5088960;28;19920;-63
2023/11/16 10:11:20;;;;;;;;;;;;;;;;;;5091153;28;20381;-63
2023/11/16 10:13:46;;;;;;;;;;;;;;;;;;5091694;28;19920;-63
2023/11/16 10:16:12;;;;;;;;;;;;;;;;;;5091827;28;19920;-64
2023/11/16 10:18:41;;;;;;;;;;;;;;;;;;5093538;28;19920;-64
2023/11/16 10:21:08;;;;;;;;;;;;;;;;;;5092701;28;20060;-64
2023/11/16 10:23:34;;;;;;;;;;;;;;;;;;5090132;28;20367;-64
2023/11/16 10:26:00;;;;;;;;;;;;;;;;;;5079877;28;19932;-64
2023/11/16 10:28:26;;;;;;;;;;;;;;;;;;5081756;28;19946;-64
2023/11/16 10:30:54;;;;;;;;;;;;;;;;;;5092550;28;19927;-64
2023/11/16 10:33:21;;;;;;;;;;;;;;;;;;5093258;28;19932;-64
2023/11/16 10:35:47;;;;;;;;;;;;;;;;;;5089529;28;19924;-65
2023/11/16 10:38:15;;;;;;;;;;;;;;;;;;5080869;28;20006;-63
2023/11/16 10:40:42;;;;;;;;;;;;;;;;;;5093172;28;19985;-64
2023/11/16 10:43:08;;;;;;;;;;;;;;;;;;5087553;28;19924;-64
2023/11/16 10:45:35;;;;;;;;;;;;;;;;;;5087723;28;19921;-62
2023/11/16 10:48:02;;;;;;;;;;;;;;;;;;5082827;28;19973;-64
2023/11/16 10:50:29;;;;;;;;;;;;;;;;;;5083501;28;20278;-64
2023/11/16 10:52:56;;;;;;;;;;;;;;;;;;5084078;28;20155;-63
2023/11/16 10:55:24;;;;;;;;;;;;;;;;;;5089317;28;19920;-64
2023/11/16 10:57:50;;;;;;;;;;;;;;;;;;5086054;28;19924;-63
2023/11/16 11:00:16;;;;;;;;;;;;;;;;;;5089894;28;19924;-64
2023/11/16 11:02:42;;;;;;;;;;;;;;;;;;5085100;28;19920;-63
2023/11/16 11:05:09;;;;;;;;;;;;;;;;;;5085785;28;20312;-64
2023/11/16 11:07:35;;;;;;;;;;;;;;;;;;5081967;28;19986;-64
2023/11/16 11:10:02;;;;;;;;;;;;;;;;;;5088543;28;21967;-64
2023/11/16 11:12:31;;;;;;;;;;;;;;;;;;5089479;28;19924;-64
2023/11/16 11:14:57;;;;;;;;;;;;;;;;;;5102372;28;19979;-64
2023/11/16 11:17:23;;;;;;;;;;;;;;;;;;5090239;28;19966;-63
2023/11/16 11:19:49;;;;;;;;;;;;;;;;;;5091677;28;19923;-64
2023/11/16 11:22:15;;;;;;;;;;;;;;;;;;5087171;28;19931;-64
2023/11/16 11:24:41;;;;;;;;;;;;;;;;;;5087031;28;19924;-63
2023/11/16 11:27:08;;;;;;;;;;;;;;;;;;5086198;28;19993;-63
2023/11/16 11:29:34;;;;;;;;;;;;;;;;;;5087384;28;19927;-64
2023/11/16 11:32:03;;;;;;;;;;;;;;;;;;5086566;28;20292;-63
2023/11/16 11:34:29;;;;;;;;;;;;;;;;;;5091424;28;19927;-63
2023/11/16 11:36:55;;;;;;;;;;;;;;;;;;5090895;28;20018;-64
2023/11/16 11:39:26;;;;;;;;;;;;;;;;;;5089868;28;20047;-64
2023/11/16 11:41:52;;;;;;;;;;;;;;;;;;5106453;28;19926;-64
2023/11/16 11:44:18;;;;;;;;;;;;;;;;;;5090698;28;19920;-64
2023/11/16 11:46:44;;;;;;;;;;;;;;;;;;5082114;28;19954;-63
2023/11/16 11:49:12;;;;;;;;;;;;;;;;;;5087487;28;19939;-64
2023/11/16 11:51:38;;;;;;;;;;;;;;;;;;5091584;28;20308;-64
2023/11/16 11:54:04;;;;;;;;;;;;;;;;;;5090198;28;19920;-64
2023/11/16 11:56:29;;;;;;;;;;;;;;;;;;5088985;28;19967;-64
2023/11/16 11:58:58;;;;;;;;;;;;;;;;;;5091290;28;20319;-64
2023/11/16 12:01:26;;;;;;;;;;;;;;;;;;5086802;28;19935;-64
2023/11/16 12:03:52;;;;;;;;;;;;;;;;;;5079342;28;20285;-63
2023/11/16 12:06:18;;;;;;;;;;;;;;;;;;5090630;28;19969;-63
2023/11/16 12:08:43;;;;;;;;;;;;;;;;;;5089134;28;19923;-64
2023/11/16 12:11:18;;;;;;;;;;;;;;;;;;5090200;28;19944;-64
2023/11/16 12:13:44;;;;;;;;;;;;;;;;;;5085676;28;20285;-63
2023/11/16 12:16:10;;;;;;;;;;;;;;;;;;5082605;28;19924;-64
2023/11/16 12:18:37;;;;;;;;;;;;;;;;;;5081084;28;19931;-64
2023/11/16 12:21:03;;;;;;;;;;;;;;;;;;5083599;28;19951;-64
2023/11/16 12:23:29;;;;;;;;;;;;;;;;;;5089676;28;19956;-63
2023/11/16 12:25:55;;;;;;;;;;;;;;;;;;5069995;28;19986;-63
2023/11/16 12:28:21;;;;;;;;;;;;;;;;;;5090311;28;20335;-64
2023/11/16 12:30:49;;;;;;;;;;;;;;;;;;5090944;28;19970;-64
2023/11/16 12:33:15;;;;;;;;;;;;;;;;;;5087134;28;19924;-63
2023/11/16 12:35:41;;;;;;;;;;;;;;;;;;5091221;28;19924;-63
2023/11/16 12:38:07;;;;;;;;;;;;;;;;;;5090966;28;19920;-63
2023/11/16 12:40:33;;;;;;;;;;;;;;;;;;5091350;28;19974;-63
2023/11/16 12:43:00;;;;;;;;;;;;;;;;;;5079410;28;19927;-63
2023/11/16 12:45:28;;;;;;;;;;;;;;;;;;5081511;28;20010;-63
2023/11/16 12:47:54;;;;;;;;;;;;;;;;;;5083257;28;19932;-63
2023/11/16 12:50:21;;;;;;;;;;;;;;;;;;5069253;28;19972;-64
2023/11/16 12:52:48;;;;;;;;;;;;;;;;;;5084218;28;20000;-64
2023/11/16 12:55:14;;;;;;;;;;;;;;;;;;5072656;28;19927;-63
2023/11/16 12:57:46;;;;;;;;;;;;;;;;;;5085746;28;19928;-63
2023/11/16 13:00:12;;;;;;;;;;;;;;;;;;5087008;28;19958;-63
2023/11/16 13:02:38;;;;;;;;;;;;;;;;;;5090226;28;20019;-63
2023/11/16 13:05:07;;;;;;;;;;;;;;;;;;5090286;28;20028;-63
2023/11/16 13:07:34;;;;;;;;;;;;;;;;;;5087500;28;20383;-63
2023/11/16 13:10:00;;;;;;;;;;;;;;;;;;5091134;28;20003;-63
2023/11/16 13:12:26;;;;;;;;;;;;;;;;;;5092638;28;20341;-63
2023/11/16 13:14:52;;;;;;;;;;;;;;;;;;5086230;28;19924;-63
2023/11/16 13:17:18;;;;;;;;;;;;;;;;;;5091251;28;19920;-64
2023/11/16 13:19:43;;;;;;;;;;;;;;;;;;5092011;28;19935;-63
2023/11/16 13:22:10;;;;;;;;;;;;;;;;;;5091373;28;19931;-63
2023/11/16 13:24:36;;;;;;;;;;;;;;;;;;5088648;28;19927;-63
2023/11/16 13:27:03;;;;;;;;;;;;;;;;;;5092815;28;19924;-63
2023/11/16 13:29:29;;;;;;;;;;;;;;;;;;5092835;28;19920;-63
2023/11/16 13:31:55;;;;;;;;;;;;;;;;;;5091626;28;20048;-62
2023/11/16 13:34:22;;;;;;;;;;;;;;;;;;5092064;28;20480;-64
2023/11/16 13:36:48;;;;;;;;;;;;;;;;;;5090384;28;20396;-63
2023/11/16 13:39:15;;;;;;;;;;;;;;;;;;5083671;28;19924;-63
2023/11/16 13:41:41;;;;;;;;;;;;;;;;;;5093217;28;19920;-63
2023/11/16 13:44:08;;;;;;;;;;;;;;;;;;5090305;28;19931;-62
2023/11/16 13:46:34;;;;;;;;;;;;;;;;;;5091981;28;20007;-63
2023/11/16 13:49:00;;;;;;;;;;;;;;;;;;5089417;28;20355;-63
2023/11/16 13:51:28;;;;;;;;;;;;;;;;;;5084235;28;19920;-63
2023/11/16 13:53:54;;;;;;;;;;;;;;;;;;5091441;28;19931;-62
2023/11/16 13:56:20;;;;;;;;;;;;;;;;;;5082663;28;19946;-63
2023/11/16 13:58:46;;;;;;;;;;;;;;;;;;5087704;28;20564;-63
2023/11/16 14:01:14;;;;;;;;;;;;;;;;;;5082017;28;20054;-62
2023/11/16 14:03:40;;;;;;;;;;;;;;;;;;5093523;28;20015;-62
2023/11/16 14:06:06;;;;;;;;;;;;;;;;;;5090525;28;20038;-64
2023/11/16 14:08:33;;;;;;;;;;;;;;;;;;5089050;28;20018;-64
2023/11/16 14:10:59;;;;;;;;;;;;;;;;;;5092879;28;19924;-63
2023/11/16 14:13:26;;;;;;;;;;;;;;;;;;5092024;28;19949;-62
2023/11/16 14:15:52;;;;;;;;;;;;;;;;;;5081642;28;19928;-63
2023/11/16 14:18:18;;;;;;;;;;;;;;;;;;5092141;28;19924;-63
2023/11/16 14:20:43;;;;;;;;;;;;;;;;;;5085676;28;20521;-62
2023/11/16 14:23:10;;;;;;;;;;;;;;;;;;5087718;28;19927;-62
2023/11/16 14:25:36;;;;;;;;;;;;;;;;;;5062676;28;20425;-63
2023/11/16 14:28:02;;;;;;;;;;;;;;;;;;5088183;28;19928;-63
2023/11/16 14:30:27;;;;;;;;;;;;;;;;;;5088743;28;20007;-63
2023/11/16 14:32:53;;;;;;;;;;;;;;;;;;5089146;28;19944;-63
2023/11/16 14:35:19;;;;;;;;;;;;;;;;;;5091599;28;19934;-63
2023/11/16 14:37:45;;;;;;;;;;;;;;;;;;5083966;28;19931;-63
2023/11/16 14:40:11;;;;;;;;;;;;;;;;;;5082146;28;19943;-64
2023/11/16 14:42:37;;;;;;;;;;;;;;;;;;5082397;28;19973;-63
2023/11/16 14:45:03;;;;;;;;;;;;;;;;;;5085951;28;19924;-63
2023/11/16 14:47:29;;;;;;;;;;;;;;;;;;5081143;28;19927;-65
2023/11/16 14:49:55;;;;;;;;;;;;;;;;;;5092514;28;19963;-64
2023/11/16 14:52:20;;;;;;;;;;;;;;;;;;5091571;28;19920;-63
2023/11/16 14:54:47;;;;;;;;;;;;;;;;;;5090717;28;19970;-64
2023/11/16 14:57:13;;;;;;;;;;;;;;;;;;5090307;28;19993;-64
2023/11/16 14:59:39;;;;;;;;;;;;;;;;;;5092968;28;20255;-63
2023/11/16 15:02:04;;;;;;;;;;;;;;;;;;5090630;28;20298;-63
2023/11/16 15:04:30;;;;;;;;;;;;;;;;;;5107461;28;19935;-63
2023/11/16 15:06:56;;;;;;;;;;;;;;;;;;5085928;28;19927;-63
2023/11/16 15:09:22;;;;;;;;;;;;;;;;;;5091276;28;19943;-64
2023/11/16 15:11:48;;;;;;;;;;;;;;;;;;5087326;28;19920;-63
2023/11/16 15:14:14;;;;;;;;;;;;;;;;;;5088092;28;20365;-64
2023/11/16 15:16:40;;;;;;;;;;;;;;;;;;5089498;28;20439;-63
2023/11/16 15:19:07;;;;;;;;;;;;;;;;;;5091855;28;20384;-63
2023/11/16 15:21:32;;;;;;;;;;;;;;;;;;5087783;28;20013;-63
2023/11/16 15:23:58;;;;;;;;;;;;;;;;;;5089464;28;19985;-63
2023/11/16 15:26:25;;;;;;;;;;;;;;;;;;5086567;28;20003;-63
2023/11/16 15:28:52;;;;;;;;;;;;;;;;;;5089362;28;20638;-63
2023/11/16 15:31:18;;;;;;;;;;;;;;;;;;5083578;28;19990;-64
2023/11/16 15:33:43;;;;;;;;;;;;;;;;;;5088457;28;20369;-63
2023/11/16 15:36:09;;;;;;;;;;;;;;;;;;5085102;28;20046;-64
2023/11/16 15:38:35;;;;;;;;;;;;;;;;;;5083927;28;19931;-64
2023/11/16 15:41:05;;;;;;;;;;;;;;;;;;5090695;28;19963;-63
2023/11/16 15:43:33;;;;;;;;;;;;;;;;;;5085211;28;19920;-63
2023/11/16 15:45:59;;;;;;;;;;;;;;;;;;5092094;28;19952;-64
2023/11/16 15:48:26;;;;;;;;;;;;;;;;;;5091501;28;20353;-64
2023/11/16 15:50:53;;;;;;;;;;;;;;;;;;5091863;28;19924;-63
2023/11/16 15:53:19;;;;;;;;;;;;;;;;;;5087235;28;19965;-64
2023/11/16 15:55:45;;;;;;;;;;;;;;;;;;5091612;28;19920;-63
2023/11/16 15:58:11;;;;;;;;;;;;;;;;;;5091358;28;19924;-63
2023/11/16 16:00:37;;;;;;;;;;;;;;;;;;5089682;28;19924;-63
2023/11/16 16:03:06;;;;;;;;;;;;;;;;;;5085336;28;19924;-64
2023/11/16 16:05:33;;;;;;;;;;;;;;;;;;5090911;28;19920;-65
2023/11/16 16:07:59;;;;;;;;;;;;;;;;;;5080078;28;20303;-64
2023/11/16 16:10:25;;;;;;;;;;;;;;;;;;5085714;28;19925;-64
2023/11/16 16:12:51;;;;;;;;;;;;;;;;;;5086130;28;19936;-64
2023/11/16 16:15:17;;;;;;;;;;;;;;;;;;5078852;28;19958;-64
2023/11/16 16:17:44;;;;;;;;;;;;;;;;;;5088738;28;19924;-62
2023/11/16 16:20:10;;;;;;;;;;;;;;;;;;5091285;28;20270;-62
2023/11/16 16:22:36;;;;;;;;;;;;;;;;;;5087539;28;19944;-63
2023/11/16 16:25:02;;;;;;;;;;;;;;;;;;5088044;28;19951;-63
2023/11/16 16:27:28;;;;;;;;;;;;;;;;;;5083361;28;20910;-64
2023/11/16 16:29:54;;;;;;;;;;;;;;;;;;5089706;28;19981;-64
2023/11/16 16:32:20;;;;;;;;;;;;;;;;;;5091013;28;19928;-64
2023/11/16 16:34:46;;;;;;;;;;;;;;;;;;5091190;28;19944;-63
2023/11/16 16:37:12;;;;;;;;;;;;;;;;;;5093861;28;20366;-64
2023/11/16 16:39:39;;;;;;;;;;;;;;;;;;5088297;28;20014;-64
2023/11/16 16:42:05;;;;;;;;;;;;;;;;;;5090179;28;19920;-64
2023/11/16 16:44:31;;;;;;;;;;;;;;;;;;5090799;28;19959;-63
2023/11/16 16:46:57;;;;;;;;;;;;;;;;;;5093352;28;19924;-63